sensor_id;sensor_type;location;lat;lon;timestamp;P1;durP1;ratioP1;P2;durP2;ratioP2
29432;SDS011;16405;53.964;13.448;2022-12-29T00:00:08;5.93;;;2.90;;
29432;SDS011;16405;53.964;13.448;2022-12-29T00:02:35;6.05;;;2.50;;
29432;SDS011;16405;53.964;13.448;2022-12-29T00:05:06;3.95;;;2.28;;
29432;SDS011;16405;53.964;13.448;2022-12-29T00:07:32;9.82;;;2.72;;
29432;SDS011;16405;53.964;13.448;2022-12-29T00:09:58;6.55;;;2.47;;
29432;SDS011;16405;53.964;13.448;2022-12-29T00:12:23;6.18;;;2.65;;
29432;SDS011;16405;53.964;13.448;2022-12-29T00:15:09;9.10;;;2.63;;
29432;SDS011;16405;53.964;13.448;2022-12-29T00:17:56;11.98;;;2.78;;
29432;SDS011;16405;53.964;13.448;2022-12-29T00:20:22;7.43;;;2.70;;
29432;SDS011;16405;53.964;13.448;2022-12-29T00:23:24;6.45;;;2.58;;
29432;SDS011;16405;53.964;13.448;2022-12-29T00:26:29;7.45;;;2.67;;
29432;SDS011;16405;53.964;13.448;2022-12-29T00:29:06;6.32;;;3.10;;
29432;SDS011;16405;53.964;13.448;2022-12-29T00:31:52;5.13;;;2.85;;
29432;SDS011;16405;53.964;13.448;2022-12-29T00:34:38;5.60;;;2.70;;
29432;SDS011;16405;53.964;13.448;2022-12-29T00:37:25;8.38;;;3.10;;
29432;SDS011;16405;53.964;13.448;2022-12-29T00:40:13;6.30;;;2.38;;
29432;SDS011;16405;53.964;13.448;2022-12-29T00:43:00;6.95;;;2.92;;
29432;SDS011;16405;53.964;13.448;2022-12-29T00:45:45;5.65;;;2.97;;
29432;SDS011;16405;53.964;13.448;2022-12-29T00:48:11;8.98;;;2.63;;
29432;SDS011;16405;53.964;13.448;2022-12-29T00:51:04;7.53;;;2.85;;
29432;SDS011;16405;53.964;13.448;2022-12-29T00:53:30;8.23;;;2.67;;
29432;SDS011;16405;53.964;13.448;2022-12-29T00:55:58;6.70;;;2.70;;
29432;SDS011;16405;53.964;13.448;2022-12-29T00:58:30;10.32;;;2.80;;
29432;SDS011;16405;53.964;13.448;2022-12-29T01:01:05;5.97;;;2.55;;
29432;SDS011;16405;53.964;13.448;2022-12-29T01:03:36;6.30;;;2.63;;
29432;SDS011;16405;53.964;13.448;2022-12-29T01:06:03;5.57;;;2.53;;
29432;SDS011;16405;53.964;13.448;2022-12-29T01:08:35;10.38;;;3.13;;
29432;SDS011;16405;53.964;13.448;2022-12-29T01:11:08;8.68;;;2.50;;
29432;SDS011;16405;53.964;13.448;2022-12-29T01:13:39;6.88;;;2.50;;
29432;SDS011;16405;53.964;13.448;2022-12-29T01:16:07;4.95;;;2.83;;
29432;SDS011;16405;53.964;13.448;2022-12-29T01:18:33;10.00;;;3.03;;
29432;SDS011;16405;53.964;13.448;2022-12-29T01:21:06;5.38;;;2.38;;
29432;SDS011;16405;53.964;13.448;2022-12-29T01:23:33;6.28;;;2.35;;
29432;SDS011;16405;53.964;13.448;2022-12-29T01:26:08;11.55;;;3.08;;
29432;SDS011;16405;53.964;13.448;2022-12-29T01:28:35;10.70;;;2.40;;
29432;SDS011;16405;53.964;13.448;2022-12-29T01:31:03;6.80;;;2.40;;
29432;SDS011;16405;53.964;13.448;2022-12-29T01:33:30;10.48;;;2.67;;
29432;SDS011;16405;53.964;13.448;2022-12-29T01:36:02;5.82;;;2.72;;
29432;SDS011;16405;53.964;13.448;2022-12-29T01:38:30;6.07;;;2.22;;
29432;SDS011;16405;53.964;13.448;2022-12-29T01:40:56;9.63;;;2.63;;
29432;SDS011;16405;53.964;13.448;2022-12-29T01:43:38;5.20;;;2.53;;
29432;SDS011;16405;53.964;13.448;2022-12-29T01:46:18;6.05;;;2.90;;
29432;SDS011;16405;53.964;13.448;2022-12-29T01:51:34;5.97;;;2.40;;
29432;SDS011;16405;53.964;13.448;2022-12-29T01:54:12;6.28;;;2.63;;
29432;SDS011;16405;53.964;13.448;2022-12-29T01:56:52;6.00;;;2.42;;
29432;SDS011;16405;53.964;13.448;2022-12-29T01:59:22;8.02;;;3.03;;
29432;SDS011;16405;53.964;13.448;2022-12-29T02:01:54;8.18;;;2.80;;
29432;SDS011;16405;53.964;13.448;2022-12-29T02:04:20;9.35;;;3.13;;
29432;SDS011;16405;53.964;13.448;2022-12-29T02:06:51;8.30;;;2.40;;
29432;SDS011;16405;53.964;13.448;2022-12-29T02:11:51;6.07;;;2.90;;
29432;SDS011;16405;53.964;13.448;2022-12-29T02:14:18;6.13;;;2.78;;
29432;SDS011;16405;53.964;13.448;2022-12-29T02:30:54;4.80;;;2.72;;
29432;SDS011;16405;53.964;13.448;2022-12-29T02:39:52;6.15;;;2.83;;
29432;SDS011;16405;53.964;13.448;2022-12-29T02:50:48;6.93;;;3.05;;
29432;SDS011;16405;53.964;13.448;2022-12-29T02:53:27;6.03;;;2.97;;
29432;SDS011;16405;53.964;13.448;2022-12-29T02:56:16;5.85;;;3.00;;
29432;SDS011;16405;53.964;13.448;2022-12-29T02:58:42;5.18;;;2.80;;
29432;SDS011;16405;53.964;13.448;2022-12-29T03:04:02;8.15;;;3.08;;
29432;SDS011;16405;53.964;13.448;2022-12-29T03:12:35;5.72;;;3.00;;
29432;SDS011;16405;53.964;13.448;2022-12-29T03:15:45;5.65;;;3.28;;
29432;SDS011;16405;53.964;13.448;2022-12-29T03:25:01;10.30;;;3.05;;
29432;SDS011;16405;53.964;13.448;2022-12-29T03:27:38;10.30;;;3.28;;
29432;SDS011;16405;53.964;13.448;2022-12-29T03:30:09;13.55;;;3.65;;
29432;SDS011;16405;53.964;13.448;2022-12-29T03:32:38;6.72;;;3.17;;
29432;SDS011;16405;53.964;13.448;2022-12-29T03:35:21;8.52;;;3.38;;
29432;SDS011;16405;53.964;13.448;2022-12-29T03:37:58;5.70;;;3.47;;
29432;SDS011;16405;53.964;13.448;2022-12-29T03:40:47;5.25;;;3.47;;
29432;SDS011;16405;53.964;13.448;2022-12-29T03:43:17;5.72;;;3.10;;
29432;SDS011;16405;53.964;13.448;2022-12-29T03:45:43;9.18;;;3.53;;
29432;SDS011;16405;53.964;13.448;2022-12-29T03:48:09;7.53;;;3.33;;
29432;SDS011;16405;53.964;13.448;2022-12-29T03:50:35;7.57;;;3.33;;
29432;SDS011;16405;53.964;13.448;2022-12-29T03:53:06;10.48;;;3.30;;
29432;SDS011;16405;53.964;13.448;2022-12-29T03:55:32;12.52;;;3.70;;
29432;SDS011;16405;53.964;13.448;2022-12-29T03:57:58;5.88;;;3.30;;
29432;SDS011;16405;53.964;13.448;2022-12-29T04:00:24;7.25;;;3.40;;
29432;SDS011;16405;53.964;13.448;2022-12-29T04:02:57;6.43;;;2.97;;
29432;SDS011;16405;53.964;13.448;2022-12-29T04:05:23;8.70;;;3.40;;
29432;SDS011;16405;53.964;13.448;2022-12-29T04:07:49;7.63;;;3.28;;
29432;SDS011;16405;53.964;13.448;2022-12-29T04:10:15;5.75;;;2.80;;
29432;SDS011;16405;53.964;13.448;2022-12-29T04:12:41;12.00;;;3.67;;
29432;SDS011;16405;53.964;13.448;2022-12-29T04:15:07;6.22;;;3.00;;
29432;SDS011;16405;53.964;13.448;2022-12-29T04:17:39;5.07;;;3.00;;
29432;SDS011;16405;53.964;13.448;2022-12-29T04:20:04;6.55;;;3.10;;
29432;SDS011;16405;53.964;13.448;2022-12-29T04:22:56;5.20;;;2.60;;
29432;SDS011;16405;53.964;13.448;2022-12-29T04:25:26;7.82;;;3.03;;
29432;SDS011;16405;53.964;13.448;2022-12-29T04:27:52;5.15;;;2.97;;
29432;SDS011;16405;53.964;13.448;2022-12-29T04:30:18;3.63;;;2.65;;
29432;SDS011;16405;53.964;13.448;2022-12-29T04:32:46;4.70;;;2.65;;
29432;SDS011;16405;53.964;13.448;2022-12-29T04:35:14;5.90;;;2.65;;
29432;SDS011;16405;53.964;13.448;2022-12-29T04:37:40;4.55;;;2.33;;
29432;SDS011;16405;53.964;13.448;2022-12-29T04:40:06;7.57;;;2.50;;
29432;SDS011;16405;53.964;13.448;2022-12-29T04:42:33;4.28;;;2.10;;
29432;SDS011;16405;53.964;13.448;2022-12-29T04:45:01;4.85;;;2.45;;
29432;SDS011;16405;53.964;13.448;2022-12-29T04:47:30;5.07;;;2.38;;
29432;SDS011;16405;53.964;13.448;2022-12-29T04:49:56;5.07;;;2.30;;
29432;SDS011;16405;53.964;13.448;2022-12-29T04:52:22;4.28;;;2.42;;
29432;SDS011;16405;53.964;13.448;2022-12-29T04:54:48;5.72;;;2.47;;
29432;SDS011;16405;53.964;13.448;2022-12-29T04:57:13;5.32;;;1.90;;
29432;SDS011;16405;53.964;13.448;2022-12-29T04:59:39;4.03;;;2.03;;
29432;SDS011;16405;53.964;13.448;2022-12-29T05:02:07;5.20;;;2.15;;
29432;SDS011;16405;53.964;13.448;2022-12-29T05:04:33;6.88;;;2.03;;
29432;SDS011;16405;53.964;13.448;2022-12-29T05:06:59;11.02;;;2.60;;
29432;SDS011;16405;53.964;13.448;2022-12-29T05:09:24;10.35;;;2.33;;
29432;SDS011;16405;53.964;13.448;2022-12-29T05:11:50;3.47;;;2.00;;
29432;SDS011;16405;53.964;13.448;2022-12-29T05:14:16;4.28;;;2.15;;
29432;SDS011;16405;53.964;13.448;2022-12-29T05:16:42;3.85;;;2.28;;
29432;SDS011;16405;53.964;13.448;2022-12-29T05:19:07;4.18;;;1.95;;
29432;SDS011;16405;53.964;13.448;2022-12-29T05:21:41;7.47;;;1.98;;
29432;SDS011;16405;53.964;13.448;2022-12-29T05:24:08;6.10;;;1.98;;
29432;SDS011;16405;53.964;13.448;2022-12-29T05:26:34;3.58;;;1.70;;
29432;SDS011;16405;53.964;13.448;2022-12-29T05:29:05;6.05;;;1.90;;
29432;SDS011;16405;53.964;13.448;2022-12-29T05:31:31;4.60;;;1.95;;
29432;SDS011;16405;53.964;13.448;2022-12-29T05:33:56;4.93;;;1.80;;
29432;SDS011;16405;53.964;13.448;2022-12-29T05:36:22;4.47;;;2.10;;
29432;SDS011;16405;53.964;13.448;2022-12-29T05:38:48;5.50;;;2.17;;
29432;SDS011;16405;53.964;13.448;2022-12-29T05:41:14;3.25;;;1.85;;
29432;SDS011;16405;53.964;13.448;2022-12-29T05:43:43;3.95;;;2.05;;
29432;SDS011;16405;53.964;13.448;2022-12-29T05:46:11;2.88;;;1.80;;
29432;SDS011;16405;53.964;13.448;2022-12-29T05:48:37;4.20;;;1.80;;
29432;SDS011;16405;53.964;13.448;2022-12-29T05:51:03;2.42;;;1.63;;
29432;SDS011;16405;53.964;13.448;2022-12-29T05:53:29;5.90;;;1.75;;
29432;SDS011;16405;53.964;13.448;2022-12-29T05:55:55;7.80;;;1.73;;
29432;SDS011;16405;53.964;13.448;2022-12-29T05:58:23;4.47;;;2.10;;
29432;SDS011;16405;53.964;13.448;2022-12-29T06:00:49;4.10;;;1.58;;
29432;SDS011;16405;53.964;13.448;2022-12-29T06:03:15;2.70;;;1.73;;
29432;SDS011;16405;53.964;13.448;2022-12-29T06:05:41;5.18;;;1.90;;
29432;SDS011;16405;53.964;13.448;2022-12-29T06:08:07;6.22;;;1.95;;
29432;SDS011;16405;53.964;13.448;2022-12-29T06:10:32;4.55;;;2.05;;
29432;SDS011;16405;53.964;13.448;2022-12-29T06:12:58;6.28;;;1.83;;
29432;SDS011;16405;53.964;13.448;2022-12-29T06:15:34;6.13;;;1.87;;
29432;SDS011;16405;53.964;13.448;2022-12-29T06:18:00;9.40;;;1.98;;
29432;SDS011;16405;53.964;13.448;2022-12-29T06:20:26;4.40;;;1.90;;
29432;SDS011;16405;53.964;13.448;2022-12-29T06:22:52;3.47;;;1.58;;
29432;SDS011;16405;53.964;13.448;2022-12-29T06:25:20;7.38;;;1.77;;
29432;SDS011;16405;53.964;13.448;2022-12-29T06:27:46;6.72;;;1.90;;
29432;SDS011;16405;53.964;13.448;2022-12-29T06:30:12;6.65;;;1.92;;
29432;SDS011;16405;53.964;13.448;2022-12-29T06:32:38;5.55;;;2.10;;
29432;SDS011;16405;53.964;13.448;2022-12-29T06:35:04;7.18;;;2.15;;
29432;SDS011;16405;53.964;13.448;2022-12-29T06:37:31;5.18;;;1.67;;
29432;SDS011;16405;53.964;13.448;2022-12-29T06:39:57;4.00;;;1.88;;
29432;SDS011;16405;53.964;13.448;2022-12-29T06:42:25;4.45;;;1.73;;
29432;SDS011;16405;53.964;13.448;2022-12-29T06:44:51;6.82;;;1.73;;
29432;SDS011;16405;53.964;13.448;2022-12-29T06:47:17;2.78;;;1.85;;
29432;SDS011;16405;53.964;13.448;2022-12-29T06:49:43;3.97;;;1.90;;
29432;SDS011;16405;53.964;13.448;2022-12-29T06:52:09;5.47;;;1.63;;
29432;SDS011;16405;53.964;13.448;2022-12-29T06:54:35;6.57;;;2.00;;
29432;SDS011;16405;53.964;13.448;2022-12-29T06:57:01;4.22;;;1.60;;
29432;SDS011;16405;53.964;13.448;2022-12-29T06:59:29;3.53;;;1.70;;
29432;SDS011;16405;53.964;13.448;2022-12-29T07:01:55;7.65;;;2.00;;
29432;SDS011;16405;53.964;13.448;2022-12-29T07:04:21;6.57;;;2.08;;
29432;SDS011;16405;53.964;13.448;2022-12-29T07:06:47;3.78;;;1.73;;
29432;SDS011;16405;53.964;13.448;2022-12-29T07:09:13;4.63;;;1.98;;
29432;SDS011;16405;53.964;13.448;2022-12-29T07:11:38;5.45;;;1.90;;
29432;SDS011;16405;53.964;13.448;2022-12-29T07:14:04;7.60;;;2.22;;
29432;SDS011;16405;53.964;13.448;2022-12-29T07:16:32;16.35;;;2.38;;
29432;SDS011;16405;53.964;13.448;2022-12-29T07:18:59;3.58;;;2.13;;
29432;SDS011;16405;53.964;13.448;2022-12-29T07:21:25;4.82;;;2.20;;
29432;SDS011;16405;53.964;13.448;2022-12-29T07:23:50;6.05;;;1.98;;
29432;SDS011;16405;53.964;13.448;2022-12-29T07:26:16;7.55;;;2.38;;
29432;SDS011;16405;53.964;13.448;2022-12-29T07:28:43;4.57;;;1.90;;
29432;SDS011;16405;53.964;13.448;2022-12-29T07:31:14;8.18;;;2.38;;
29432;SDS011;16405;53.964;13.448;2022-12-29T07:33:43;6.70;;;2.40;;
29432;SDS011;16405;53.964;13.448;2022-12-29T07:36:10;5.43;;;2.30;;
29432;SDS011;16405;53.964;13.448;2022-12-29T07:38:42;8.13;;;2.50;;
29432;SDS011;16405;53.964;13.448;2022-12-29T07:41:09;5.90;;;2.33;;
29432;SDS011;16405;53.964;13.448;2022-12-29T07:43:34;7.05;;;2.47;;
29432;SDS011;16405;53.964;13.448;2022-12-29T07:46:00;5.45;;;2.20;;
29432;SDS011;16405;53.964;13.448;2022-12-29T07:48:26;6.50;;;2.13;;
29432;SDS011;16405;53.964;13.448;2022-12-29T07:50:58;3.58;;;2.00;;
29432;SDS011;16405;53.964;13.448;2022-12-29T07:53:24;6.85;;;2.17;;
29432;SDS011;16405;53.964;13.448;2022-12-29T07:55:50;6.00;;;2.10;;
29432;SDS011;16405;53.964;13.448;2022-12-29T07:58:15;4.20;;;2.13;;
29432;SDS011;16405;53.964;13.448;2022-12-29T08:00:41;6.13;;;1.90;;
29432;SDS011;16405;53.964;13.448;2022-12-29T08:03:10;4.90;;;2.50;;
29432;SDS011;16405;53.964;13.448;2022-12-29T08:05:36;5.90;;;1.95;;
29432;SDS011;16405;53.964;13.448;2022-12-29T08:08:02;5.13;;;1.98;;
29432;SDS011;16405;53.964;13.448;2022-12-29T08:10:31;2.63;;;1.80;;
29432;SDS011;16405;53.964;13.448;2022-12-29T08:12:57;6.60;;;1.75;;
29432;SDS011;16405;53.964;13.448;2022-12-29T08:15:23;3.38;;;1.90;;
29432;SDS011;16405;53.964;13.448;2022-12-29T08:17:56;3.60;;;1.67;;
29432;SDS011;16405;53.964;13.448;2022-12-29T08:20:25;3.53;;;1.80;;
29432;SDS011;16405;53.964;13.448;2022-12-29T08:22:54;3.05;;;1.80;;
29432;SDS011;16405;53.964;13.448;2022-12-29T08:25:26;4.15;;;2.00;;
29432;SDS011;16405;53.964;13.448;2022-12-29T08:27:55;2.92;;;1.70;;
29432;SDS011;16405;53.964;13.448;2022-12-29T08:30:27;5.78;;;1.90;;
29432;SDS011;16405;53.964;13.448;2022-12-29T08:32:53;4.20;;;1.80;;
29432;SDS011;16405;53.964;13.448;2022-12-29T08:35:21;7.55;;;1.70;;
29432;SDS011;16405;53.964;13.448;2022-12-29T08:37:50;5.57;;;1.50;;
29432;SDS011;16405;53.964;13.448;2022-12-29T08:40:21;5.15;;;2.10;;
29432;SDS011;16405;53.964;13.448;2022-12-29T08:42:47;5.13;;;1.65;;
29432;SDS011;16405;53.964;13.448;2022-12-29T08:45:13;3.67;;;1.70;;
29432;SDS011;16405;53.964;13.448;2022-12-29T08:47:46;5.18;;;1.65;;
29432;SDS011;16405;53.964;13.448;2022-12-29T08:50:12;4.63;;;1.80;;
29432;SDS011;16405;53.964;13.448;2022-12-29T08:52:41;2.95;;;1.30;;
29432;SDS011;16405;53.964;13.448;2022-12-29T08:55:07;6.57;;;1.58;;
29432;SDS011;16405;53.964;13.448;2022-12-29T08:57:41;3.22;;;1.40;;
29432;SDS011;16405;53.964;13.448;2022-12-29T09:00:10;2.83;;;1.45;;
29432;SDS011;16405;53.964;13.448;2022-12-29T09:02:39;7.63;;;1.55;;
29432;SDS011;16405;53.964;13.448;2022-12-29T09:05:05;3.65;;;1.75;;
29432;SDS011;16405;53.964;13.448;2022-12-29T09:07:35;3.97;;;1.27;;
29432;SDS011;16405;53.964;13.448;2022-12-29T09:10:01;3.60;;;1.42;;
29432;SDS011;16405;53.964;13.448;2022-12-29T09:12:30;2.70;;;1.48;;
29432;SDS011;16405;53.964;13.448;2022-12-29T09:15:02;2.53;;;1.13;;
29432;SDS011;16405;53.964;13.448;2022-12-29T09:17:33;3.72;;;1.30;;
29432;SDS011;16405;53.964;13.448;2022-12-29T09:20:20;2.97;;;1.42;;
29432;SDS011;16405;53.964;13.448;2022-12-29T09:22:46;5.70;;;1.30;;
29432;SDS011;16405;53.964;13.448;2022-12-29T09:25:13;2.97;;;1.35;;
29432;SDS011;16405;53.964;13.448;2022-12-29T09:27:39;4.47;;;1.75;;
29432;SDS011;16405;53.964;13.448;2022-12-29T09:30:06;4.20;;;1.70;;
29432;SDS011;16405;53.964;13.448;2022-12-29T09:32:38;4.78;;;1.35;;
29432;SDS011;16405;53.964;13.448;2022-12-29T09:35:10;2.05;;;1.40;;
29432;SDS011;16405;53.964;13.448;2022-12-29T09:37:43;3.45;;;1.60;;
29432;SDS011;16405;53.964;13.448;2022-12-29T09:40:17;6.72;;;1.48;;
29432;SDS011;16405;53.964;13.448;2022-12-29T09:46:27;6.43;;;1.48;;
29432;SDS011;16405;53.964;13.448;2022-12-29T09:51:47;7.45;;;1.50;;
29432;SDS011;16405;53.964;13.448;2022-12-29T09:54:36;2.05;;;1.30;;
29432;SDS011;16405;53.964;13.448;2022-12-29T10:00:37;6.03;;;1.63;;
29432;SDS011;16405;53.964;13.448;2022-12-29T10:06:29;2.25;;;1.10;;
29432;SDS011;16405;53.964;13.448;2022-12-29T10:16:03;2.67;;;1.15;;
29432;SDS011;16405;53.964;13.448;2022-12-29T10:21:15;3.20;;;1.10;;
29432;SDS011;16405;53.964;13.448;2022-12-29T10:24:03;4.55;;;1.00;;
29432;SDS011;16405;53.964;13.448;2022-12-29T10:26:38;1.02;;;0.55;;
29432;SDS011;16405;53.964;13.448;2022-12-29T10:32:02;1.38;;;0.60;;
29432;SDS011;16405;53.964;13.448;2022-12-29T10:34:45;1.80;;;0.70;;
29432;SDS011;16405;53.964;13.448;2022-12-29T10:46:35;2.20;;;0.47;;
29432;SDS011;16405;53.964;13.448;2022-12-29T10:49:05;1.67;;;0.57;;
29432;SDS011;16405;53.964;13.448;2022-12-29T10:51:45;1.05;;;0.50;;
29432;SDS011;16405;53.964;13.448;2022-12-29T10:54:18;4.00;;;0.50;;
29432;SDS011;16405;53.964;13.448;2022-12-29T10:57:37;3.63;;;3.42;;
29432;SDS011;16405;53.964;13.448;2022-12-29T11:00:15;0.98;;;0.40;;
29432;SDS011;16405;53.964;13.448;2022-12-29T11:03:10;2.63;;;0.50;;
29432;SDS011;16405;53.964;13.448;2022-12-29T11:06:42;1.80;;;0.50;;
29432;SDS011;16405;53.964;13.448;2022-12-29T11:09:21;1.38;;;0.65;;
29432;SDS011;16405;53.964;13.448;2022-12-29T11:11:57;2.38;;;0.73;;
29432;SDS011;16405;53.964;13.448;2022-12-29T11:14:27;1.15;;;0.40;;
29432;SDS011;16405;53.964;13.448;2022-12-29T11:17:00;2.22;;;0.60;;
29432;SDS011;16405;53.964;13.448;2022-12-29T11:19:36;1.80;;;0.50;;
29432;SDS011;16405;53.964;13.448;2022-12-29T11:22:19;1.15;;;0.60;;
29432;SDS011;16405;53.964;13.448;2022-12-29T11:24:54;1.92;;;0.52;;
29432;SDS011;16405;53.964;13.448;2022-12-29T11:27:31;6.38;;;1.67;;
29432;SDS011;16405;53.964;13.448;2022-12-29T11:30:22;2.53;;;0.50;;
29432;SDS011;16405;53.964;13.448;2022-12-29T11:32:54;4.57;;;4.22;;
29432;SDS011;16405;53.964;13.448;2022-12-29T11:35:29;4.47;;;0.55;;
29432;SDS011;16405;53.964;13.448;2022-12-29T11:37:59;4.85;;;0.40;;
29432;SDS011;16405;53.964;13.448;2022-12-29T11:40:26;4.95;;;0.35;;
29432;SDS011;16405;53.964;13.448;2022-12-29T11:43:00;1.13;;;0.40;;
29432;SDS011;16405;53.964;13.448;2022-12-29T11:45:33;3.35;;;0.47;;
29432;SDS011;16405;53.964;13.448;2022-12-29T11:48:07;2.55;;;0.60;;
29432;SDS011;16405;53.964;13.448;2022-12-29T11:50:41;1.92;;;0.50;;
29432;SDS011;16405;53.964;13.448;2022-12-29T11:53:16;1.15;;;0.30;;
29432;SDS011;16405;53.964;13.448;2022-12-29T11:55:52;1.17;;;0.40;;
29432;SDS011;16405;53.964;13.448;2022-12-29T11:58:31;4.25;;;0.52;;
29432;SDS011;16405;53.964;13.448;2022-12-29T12:04:35;7.47;;;0.85;;
29432;SDS011;16405;53.964;13.448;2022-12-29T12:06:55;2.42;;;0.50;;
29432;SDS011;16405;53.964;13.448;2022-12-29T12:09:41;2.58;;;0.70;;
29432;SDS011;16405;53.964;13.448;2022-12-29T12:12:24;4.38;;;0.82;;
29432;SDS011;16405;53.964;13.448;2022-12-29T12:15:24;4.32;;;0.40;;
29432;SDS011;16405;53.964;13.448;2022-12-29T12:18:03;4.57;;;0.98;;
29432;SDS011;16405;53.964;13.448;2022-12-29T12:20:38;6.25;;;1.00;;
29432;SDS011;16405;53.964;13.448;2022-12-29T12:23:19;1.92;;;0.60;;
29432;SDS011;16405;53.964;13.448;2022-12-29T12:28:54;1.98;;;0.40;;
29432;SDS011;16405;53.964;13.448;2022-12-29T12:34:29;2.50;;;0.60;;
29432;SDS011;16405;53.964;13.448;2022-12-29T12:46:15;3.95;;;0.80;;
29432;SDS011;16405;53.964;13.448;2022-12-29T12:50:15;4.00;;;0.60;;
29432;SDS011;16405;53.964;13.448;2022-12-29T12:58:17;2.42;;;0.52;;
29432;SDS011;16405;53.964;13.448;2022-12-29T13:10:42;4.75;;;0.85;;
29432;SDS011;16405;53.964;13.448;2022-12-29T13:16:06;6.35;;;1.00;;
29432;SDS011;16405;53.964;13.448;2022-12-29T13:19:47;5.53;;;1.00;;
29432;SDS011;16405;53.964;13.448;2022-12-29T13:22:03;4.38;;;0.80;;
29432;SDS011;16405;53.964;13.448;2022-12-29T13:31:48;2.95;;;0.82;;
29432;SDS011;16405;53.964;13.448;2022-12-29T13:34:54;4.55;;;0.75;;
29432;SDS011;16405;53.964;13.448;2022-12-29T13:37:53;7.57;;;0.95;;
29432;SDS011;16405;53.964;13.448;2022-12-29T13:40:36;4.95;;;0.88;;
29432;SDS011;16405;53.964;13.448;2022-12-29T13:43:12;4.60;;;0.95;;
29432;SDS011;16405;53.964;13.448;2022-12-29T13:45:40;4.45;;;0.90;;
29432;SDS011;16405;53.964;13.448;2022-12-29T13:48:17;8.80;;;1.48;;
29432;SDS011;16405;53.964;13.448;2022-12-29T13:50:58;5.18;;;0.70;;
29432;SDS011;16405;53.964;13.448;2022-12-29T13:57:05;6.13;;;0.85;;
29432;SDS011;16405;53.964;13.448;2022-12-29T14:00:23;4.45;;;0.93;;
29432;SDS011;16405;53.964;13.448;2022-12-29T14:05:28;4.05;;;1.02;;
29432;SDS011;16405;53.964;13.448;2022-12-29T14:07:57;6.40;;;0.77;;
29432;SDS011;16405;53.964;13.448;2022-12-29T14:10:35;7.72;;;1.02;;
29432;SDS011;16405;53.964;13.448;2022-12-29T14:13:36;7.93;;;1.15;;
29432;SDS011;16405;53.964;13.448;2022-12-29T14:15:56;6.47;;;1.40;;
29432;SDS011;16405;53.964;13.448;2022-12-29T14:18:27;9.25;;;1.10;;
29432;SDS011;16405;53.964;13.448;2022-12-29T14:21:03;9.57;;;1.35;;
29432;SDS011;16405;53.964;13.448;2022-12-29T14:23:52;8.15;;;1.30;;
29432;SDS011;16405;53.964;13.448;2022-12-29T14:28:56;4.82;;;0.80;;
29432;SDS011;16405;53.964;13.448;2022-12-29T14:31:54;5.03;;;1.10;;
29432;SDS011;16405;53.964;13.448;2022-12-29T14:50:15;10.15;;;1.23;;
29432;SDS011;16405;53.964;13.448;2022-12-29T14:53:09;10.75;;;0.90;;
29432;SDS011;16405;53.964;13.448;2022-12-29T14:56:19;5.65;;;1.50;;
29432;SDS011;16405;53.964;13.448;2022-12-29T14:58:57;6.35;;;0.90;;
29432;SDS011;16405;53.964;13.448;2022-12-29T15:04:26;8.43;;;1.75;;
29432;SDS011;16405;53.964;13.448;2022-12-29T15:16:02;8.93;;;1.05;;
29432;SDS011;16405;53.964;13.448;2022-12-29T15:18:29;3.80;;;0.90;;
29432;SDS011;16405;53.964;13.448;2022-12-29T15:21:02;8.05;;;1.50;;
29432;SDS011;16405;53.964;13.448;2022-12-29T15:23:33;4.93;;;0.90;;
29432;SDS011;16405;53.964;13.448;2022-12-29T15:26:06;11.07;;;1.42;;
29432;SDS011;16405;53.964;13.448;2022-12-29T15:28:40;5.50;;;1.20;;
29432;SDS011;16405;53.964;13.448;2022-12-29T15:33:40;7.53;;;1.08;;
29432;SDS011;16405;53.964;13.448;2022-12-29T15:38:52;5.32;;;0.90;;
29432;SDS011;16405;53.964;13.448;2022-12-29T15:41:40;7.47;;;1.27;;
29432;SDS011;16405;53.964;13.448;2022-12-29T15:47:15;5.53;;;1.20;;
29432;SDS011;16405;53.964;13.448;2022-12-29T15:50:41;3.92;;;0.90;;
29432;SDS011;16405;53.964;13.448;2022-12-29T15:52:51;4.95;;;1.33;;
29432;SDS011;16405;53.964;13.448;2022-12-29T15:55:19;4.63;;;1.27;;
29432;SDS011;16405;53.964;13.448;2022-12-29T15:58:02;5.15;;;1.48;;
29432;SDS011;16405;53.964;13.448;2022-12-29T16:00:51;9.63;;;1.20;;
29432;SDS011;16405;53.964;13.448;2022-12-29T16:03:23;7.15;;;1.38;;
29432;SDS011;16405;53.964;13.448;2022-12-29T16:05:56;10.57;;;1.30;;
29432;SDS011;16405;53.964;13.448;2022-12-29T16:08:36;5.07;;;1.40;;
29432;SDS011;16405;53.964;13.448;2022-12-29T16:13:54;8.50;;;1.38;;
29432;SDS011;16405;53.964;13.448;2022-12-29T16:16:22;2.78;;;0.70;;
29432;SDS011;16405;53.964;13.448;2022-12-29T16:19:01;3.58;;;1.25;;
29432;SDS011;16405;53.964;13.448;2022-12-29T16:21:37;4.80;;;1.00;;
29432;SDS011;16405;53.964;13.448;2022-12-29T16:24:06;7.10;;;1.20;;
29432;SDS011;16405;53.964;13.448;2022-12-29T16:26:44;8.88;;;1.40;;
29432;SDS011;16405;53.964;13.448;2022-12-29T16:29:16;6.05;;;1.08;;
29432;SDS011;16405;53.964;13.448;2022-12-29T16:34:26;4.78;;;1.05;;
29432;SDS011;16405;53.964;13.448;2022-12-29T16:37:23;5.97;;;1.10;;
29432;SDS011;16405;53.964;13.448;2022-12-29T16:39:54;7.18;;;1.38;;
29432;SDS011;16405;53.964;13.448;2022-12-29T16:47:49;4.95;;;1.27;;
29432;SDS011;16405;53.964;13.448;2022-12-29T16:50:35;3.60;;;0.88;;
29432;SDS011;16405;53.964;13.448;2022-12-29T16:53:15;6.80;;;1.20;;
29432;SDS011;16405;53.964;13.448;2022-12-29T16:56:08;5.18;;;1.58;;
29432;SDS011;16405;53.964;13.448;2022-12-29T16:58:48;9.00;;;1.15;;
29432;SDS011;16405;53.964;13.448;2022-12-29T17:01:23;9.85;;;1.10;;
29432;SDS011;16405;53.964;13.448;2022-12-29T17:03:59;5.00;;;1.30;;
29432;SDS011;16405;53.964;13.448;2022-12-29T17:06:30;7.93;;;1.20;;
29432;SDS011;16405;53.964;13.448;2022-12-29T17:08:56;4.38;;;0.95;;
29432;SDS011;16405;53.964;13.448;2022-12-29T17:11:27;11.30;;;1.17;;
29432;SDS011;16405;53.964;13.448;2022-12-29T17:16:50;9.38;;;1.50;;
29432;SDS011;16405;53.964;13.448;2022-12-29T17:19:17;8.82;;;1.60;;
29432;SDS011;16405;53.964;13.448;2022-12-29T17:21:53;12.38;;;1.80;;
29432;SDS011;16405;53.964;13.448;2022-12-29T17:24:19;13.05;;;1.70;;
29432;SDS011;16405;53.964;13.448;2022-12-29T17:26:45;7.53;;;1.30;;
29432;SDS011;16405;53.964;13.448;2022-12-29T17:29:20;4.68;;;0.90;;
29432;SDS011;16405;53.964;13.448;2022-12-29T17:31:49;3.58;;;0.80;;
29432;SDS011;16405;53.964;13.448;2022-12-29T17:34:15;6.90;;;0.98;;
29432;SDS011;16405;53.964;13.448;2022-12-29T17:36:41;3.33;;;0.73;;
29432;SDS011;16405;53.964;13.448;2022-12-29T17:39:09;4.03;;;0.70;;
29432;SDS011;16405;53.964;13.448;2022-12-29T17:41:37;3.70;;;0.70;;
29432;SDS011;16405;53.964;13.448;2022-12-29T17:44:04;2.05;;;0.60;;
29432;SDS011;16405;53.964;13.448;2022-12-29T17:46:31;5.25;;;0.80;;
29432;SDS011;16405;53.964;13.448;2022-12-29T17:48:58;4.13;;;0.70;;
29432;SDS011;16405;53.964;13.448;2022-12-29T17:51:29;6.40;;;1.00;;
29432;SDS011;16405;53.964;13.448;2022-12-29T17:53:55;9.23;;;1.30;;
29432;SDS011;16405;53.964;13.448;2022-12-29T17:56:21;7.80;;;0.95;;
29432;SDS011;16405;53.964;13.448;2022-12-29T17:58:46;6.43;;;1.00;;
29432;SDS011;16405;53.964;13.448;2022-12-29T18:01:13;4.45;;;0.80;;
29432;SDS011;16405;53.964;13.448;2022-12-29T18:03:39;3.88;;;0.80;;
29432;SDS011;16405;53.964;13.448;2022-12-29T18:06:12;9.52;;;1.13;;
29432;SDS011;16405;53.964;13.448;2022-12-29T18:08:41;4.45;;;0.70;;
29432;SDS011;16405;53.964;13.448;2022-12-29T18:11:28;7.65;;;1.08;;
29432;SDS011;16405;53.964;13.448;2022-12-29T18:13:57;6.25;;;1.13;;